Time;durP1;ratioP1;P1;durP2;ratioP2;P2;SDS_P1;SDS_P2;PMS_P1;PMS_P2;Temp;Humidity;BMP_temperature;BMP_pressure;BME280_temperature;BME280_humidity;BME280_pressure;Samples;Min_cycle;Max_cycle;Signal;HPM_P1;HPM_P2
2024/03/18 12:57:27;;;;;;;11.00;6.45;;;;;;;9.87;100.00;96535.81;2115876;27;20570;-59
2024/03/18 12:59:53;;;;;;;12.57;6.13;;;;;;;10.09;100.00;96540.09;2084164;28;20940;-58
2024/03/18 13:27:35;;;;;;;16.77;7.88;;;;;;;10.38;100.00;96543.19;2088777;28;20577;-58
2024/03/18 13:28:36;;;;;;;15.50;8.50;;;;;;;10.56;100.00;96547.59;2087801;28;20295;-58
2024/03/18 13:29:39;;;;;;;18.73;9.02;;;;;;;10.57;100.00;96551.88;2076304;28;20265;-59
2024/03/18 13:30:41;;;;;;;61.63;33.53;;;;;;;10.52;100.00;96551.25;2077427;28;20561;-58
2024/03/18 13:33:17;;;;;;;20.38;10.10;;;;;;;10.65;100.00;96528.00;2092447;27;20911;-58
2024/03/18 13:35:35;;;;;;;19.00;10.10;;;;;;;10.81;100.00;96545.59;2084556;28;20567;-58
2024/03/18 13:37:57;;;;;;;16.50;8.98;;;;;;;10.83;100.00;96526.31;2089373;28;20562;-59
2024/03/18 13:38:59;;;;;;;15.93;10.20;;;;;;;10.93;100.00;96538.00;2075118;28;20705;-58
2024/03/18 13:40:01;;;;;;;14.02;9.02;;;;;;;11.03;100.00;96540.19;2066123;28;20213;-58
2024/03/18 13:41:05;;;;;;;12.27;7.40;;;;;;;11.19;100.00;96541.13;2066001;28;20214;-58
2024/03/18 13:42:16;;;;;;;13.30;7.07;;;;;;;11.14;100.00;96534.44;2075665;28;20201;-59
2024/03/18 13:44:51;;;;;;;13.93;7.00;;;;;;;11.05;100.00;96530.50;2082466;28;20559;-58
2024/03/18 13:45:54;;;;;;;13.83;7.53;;;;;;;10.94;100.00;96542.34;2089193;28;20203;-57
2024/03/18 13:48:31;;;;;;;20.30;11.00;;;;;;;11.07;100.00;96549.56;2083287;28;20567;-59
2024/03/18 13:51:42;;;;;;;13.93;8.40;;;;;;;10.66;100.00;96545.38;2090068;28;20563;-61
2024/03/18 13:54:22;;;;;;;17.38;8.40;;;;;;;10.67;100.00;96551.47;2069384;28;20567;-60
2024/03/18 13:57:26;;;;;;;18.30;10.20;;;;;;;10.70;100.00;96540.88;2091515;27;20584;-59
2024/03/18 13:58:26;;;;;;;14.07;6.57;;;;;;;10.80;100.00;96549.13;2088113;28;20897;-59
2024/03/18 13:59:29;;;;;;;16.00;9.30;;;;;;;11.00;100.00;96553.41;2064496;28;20217;-58
2024/03/18 14:00:30;;;;;;;11.88;6.80;;;;;;;11.09;100.00;96547.72;2070012;28;20705;-59
2024/03/18 14:05:59;;;;;;;14.63;7.15;;;;;;;10.91;100.00;96546.84;2084001;27;20544;-58
2024/03/18 14:07:05;;;;;;;13.30;6.20;;;;;;;11.15;100.00;96546.56;2078469;28;20289;-60
2024/03/18 14:11:21;;;;;;;11.90;6.20;;;;;;;11.36;100.00;96549.91;2106461;27;21081;-60
2024/03/18 14:13:44;;;;;;;12.55;6.68;;;;;;;11.33;100.00;96547.47;2088661;27;20921;-61
2024/03/18 14:14:44;;;;;;;16.43;7.20;;;;;;;11.40;100.00;96544.47;2085595;28;20208;-62
2024/03/18 14:15:45;;;;;;;10.70;6.97;;;;;;;11.39;100.00;96544.53;2077639;28;20216;-62
2024/03/18 14:40:31;;;;;;;69.70;30.88;;;;;;;10.42;100.00;96574.31;2083688;28;20542;-61
2024/03/18 14:41:32;;;;;;;277.40;104.47;;;;;;;10.56;100.00;96581.53;2073806;28;20226;-61
2024/03/18 14:42:33;;;;;;;221.02;76.03;;;;;;;10.97;100.00;96574.44;2068510;28;20214;-61
2024/03/18 14:43:33;;;;;;;345.87;137.03;;;;;;;11.03;100.00;96572.38;2074458;28;20208;-62
2024/03/18 14:44:34;;;;;;;110.97;44.17;;;;;;;11.15;100.00;96555.28;2073438;28;20255;-62
2024/03/18 14:45:34;;;;;;;274.83;100.87;;;;;;;11.53;100.00;96565.63;2077676;28;20264;-62
2024/03/18 14:46:35;;;;;;;203.10;72.30;;;;;;;11.56;100.00;96573.28;2066051;28;20214;-63
2024/03/18 14:47:36;;;;;;;221.23;91.90;;;;;;;11.65;100.00;96569.38;2069197;28;20198;-62
2024/03/18 14:48:36;;;;;;;58.67;29.20;;;;;;;11.62;100.00;96568.69;2070221;28;20224;-61
2024/03/18 14:49:38;;;;;;;37.70;19.30;;;;;;;11.60;100.00;96574.00;2075798;28;20205;-62
2024/03/18 14:50:39;;;;;;;33.08;18.73;;;;;;;11.51;100.00;96572.69;2073237;28;20446;-62
2024/03/18 14:51:39;;;;;;;26.00;15.05;;;;;;;11.67;100.00;96574.53;2074471;28;20201;-62
2024/03/18 14:52:41;;;;;;;23.73;14.80;;;;;;;11.58;100.00;96571.47;2074990;28;20208;-62
2024/03/18 14:53:43;;;;;;;21.38;13.75;;;;;;;11.50;100.00;96568.38;2073103;28;20213;-61
2024/03/18 14:54:44;;;;;;;26.30;15.07;;;;;;;11.49;100.00;96560.59;2065548;28;20640;-62
2024/03/18 14:55:44;;;;;;;24.53;14.83;;;;;;;11.51;100.00;96564.00;2064041;28;20218;-62
2024/03/18 14:56:47;;;;;;;32.40;15.80;;;;;;;11.50;100.00;96557.91;2070131;28;20558;-62
2024/03/18 14:57:48;;;;;;;26.58;13.60;;;;;;;11.67;100.00;96564.06;2072416;28;20206;-62
2024/03/18 14:58:50;;;;;;;24.70;15.43;;;;;;;11.61;100.00;96554.78;2057204;28;20212;-62
2024/03/18 14:59:52;;;;;;;31.05;15.60;;;;;;;11.54;100.00;96549.00;2060111;28;20273;-62
2024/03/18 15:00:53;;;;;;;25.35;14.32;;;;;;;11.73;100.00;96555.91;2076936;28;20201;-62
2024/03/18 15:01:54;;;;;;;18.97;13.07;;;;;;;11.70;98.79;96551.69;2074411;28;20877;-62
2024/03/18 15:02:55;;;;;;;24.75;15.57;;;;;;;11.71;98.27;96545.53;2073777;28;20202;-62
2024/03/18 15:03:57;;;;;;;22.20;13.43;;;;;;;11.72;98.42;96551.63;2073061;28;20322;-62
2024/03/18 15:04:57;;;;;;;28.63;14.00;;;;;;;11.85;98.10;96551.84;2074196;28;20830;-62
2024/03/18 15:05:59;;;;;;;25.40;13.67;;;;;;;12.01;98.55;96539.69;2072975;28;20627;-62
2024/03/18 15:07:01;;;;;;;40.13;19.25;;;;;;;12.26;97.54;96554.09;2072621;28;20263;-62
2024/03/18 15:08:01;;;;;;;31.85;17.10;;;;;;;12.30;95.88;96550.38;2082506;28;20232;-62
2024/03/18 15:09:06;;;;;;;24.87;13.83;;;;;;;12.05;95.34;96522.91;2074359;28;20217;-62
2024/03/18 15:10:07;;;;;;;17.88;13.20;;;;;;;12.10;95.04;96512.19;2076218;28;20210;-61
2024/03/18 15:11:07;;;;;;;20.15;13.15;;;;;;;12.48;95.83;96547.72;2072919;28;20237;-62
2024/03/18 15:12:08;;;;;;;24.37;14.70;;;;;;;12.73;94.98;96552.47;2076863;28;20228;-62
2024/03/18 15:13:09;;;;;;;26.05;12.52;;;;;;;12.95;93.30;96549.53;2069182;28;20755;-62
2024/03/18 15:14:10;;;;;;;20.87;12.20;;;;;;;13.21;92.12;96542.78;2067959;28;20214;-62
2024/03/18 15:15:10;;;;;;;19.20;11.40;;;;;;;13.63;89.33;96536.97;2076111;28;20303;-62
2024/03/18 15:16:12;;;;;;;18.40;13.07;;;;;;;14.27;87.84;96549.78;2083099;28;20205;-62
2024/03/18 15:17:12;;;;;;;15.57;10.82;;;;;;;13.92;86.79;96550.16;2073784;28;20220;-62
2024/03/18 15:18:13;;;;;;;17.67;11.50;;;;;;;13.60;87.52;96542.38;2066360;28;20317;-62
2024/03/18 15:19:13;;;;;;;18.10;11.30;;;;;;;14.25;86.23;96541.19;2072530;28;20317;-62
2024/03/18 15:20:14;;;;;;;18.80;11.67;;;;;;;14.33;85.17;96550.25;2073767;28;20375;-62
2024/03/18 15:21:14;;;;;;;17.70;9.10;;;;;;;14.65;83.61;96546.59;2081451;28;20210;-63
2024/03/18 15:22:16;;;;;;;15.73;9.20;;;;;;;13.77;84.93;96523.88;2073325;28;20343;-63
2024/03/18 15:23:25;;;;;;;14.05;10.25;;;;;;;14.40;84.06;96536.75;2068797;28;20835;-63
2024/03/18 15:24:38;;;;;;;11.95;8.68;;;;;;;14.89;81.78;96538.94;2071295;28;20241;-62
2024/03/18 15:28:18;;;;;;;17.08;8.48;;;;;;;16.06;76.58;96545.41;2076916;28;20701;-62
2024/03/18 15:29:19;;;;;;;19.20;7.93;;;;;;;16.91;75.16;96542.16;2081672;28;20210;-62
2024/03/18 15:30:20;;;;;;;13.77;7.67;;;;;;;17.00;73.81;96536.22;2073909;28;20234;-62
2024/03/18 15:31:22;;;;;;;17.77;6.93;;;;;;;16.80;73.52;96535.81;2073691;28;20444;-62
2024/03/18 15:32:22;;;;;;;11.90;6.82;;;;;;;16.62;73.25;96543.25;2071164;28;20206;-62
2024/03/18 15:33:23;;;;;;;13.10;6.50;;;;;;;16.92;73.10;96531.47;2079250;28;20676;-62
2024/03/18 15:34:24;;;;;;;13.43;6.93;;;;;;;16.65;70.96;96539.56;2066050;28;20831;-62
2024/03/18 15:35:24;;;;;;;16.20;6.30;;;;;;;16.69;70.81;96541.00;2058308;28;20908;-62
2024/03/18 15:36:26;;;;;;;8.43;5.57;;;;;;;16.52;71.27;96523.78;2069009;28;20206;-62
2024/03/18 15:37:30;;;;;;;12.80;6.38;;;;;;;16.67;73.76;96547.34;2076577;28;20221;-62
2024/03/18 15:38:31;;;;;;;22.30;6.50;;;;;;;16.67;71.94;96550.84;2073658;28;20210;-62
2024/03/18 15:39:31;;;;;;;15.40;5.90;;;;;;;16.30;74.04;96550.75;2070074;28;20963;-62
2024/03/18 15:40:32;;;;;;;14.27;6.70;;;;;;;15.42;76.11;96548.75;2076397;28;20222;-62
2024/03/18 15:41:36;;;;;;;11.45;6.20;;;;;;;15.24;78.31;96548.16;2077294;28;20217;-62
2024/03/18 15:42:37;;;;;;;11.30;6.20;;;;;;;14.92;79.77;96544.03;2076944;28;20205;-62
2024/03/18 15:43:37;;;;;;;10.87;6.10;;;;;;;14.77;79.87;96545.84;2077225;28;20218;-62
2024/03/18 15:44:38;;;;;;;14.67;7.00;;;;;;;15.44;79.20;96558.22;2080145;28;20247;-62
2024/03/18 15:45:38;;;;;;;16.40;6.10;;;;;;;15.00;78.53;96531.22;2072736;28;20202;-62
2024/03/18 15:46:40;;;;;;;13.03;5.40;;;;;;;15.26;77.88;96541.00;2071289;28;20784;-62
2024/03/18 15:47:41;;;;;;;9.38;4.38;;;;;;;15.76;75.47;96541.25;2065251;28;20651;-62
2024/03/18 15:48:41;;;;;;;11.70;4.40;;;;;;;16.19;74.24;96548.03;2066728;28;20733;-62
2024/03/18 15:49:42;;;;;;;11.43;4.57;;;;;;;16.37;73.25;96544.13;2073950;28;20446;-62
2024/03/18 15:50:42;;;;;;;17.00;5.90;;;;;;;16.89;72.69;96544.03;2070553;28;20220;-62
2024/03/18 15:51:43;;;;;;;8.60;5.10;;;;;;;17.29;71.28;96543.78;2066009;28;20345;-62
2024/03/18 15:52:43;;;;;;;12.00;4.87;;;;;;;17.42;70.63;96552.50;2066468;28;20211;-63
2024/03/18 15:53:44;;;;;;;11.67;5.00;;;;;;;17.52;69.45;96547.38;2067252;28;20615;-62
2024/03/18 15:54:45;;;;;;;16.43;4.80;;;;;;;17.29;68.85;96554.34;2067861;28;20222;-62
2024/03/18 15:55:46;;;;;;;8.40;5.07;;;;;;;16.87;69.60;96553.84;2058352;28;20218;-62
2024/03/18 15:56:46;;;;;;;12.47;4.00;;;;;;;16.70;69.71;96547.97;2059530;28;20209;-63
2024/03/18 15:57:47;;;;;;;12.77;4.50;;;;;;;16.26;70.72;96538.75;2067548;28;20731;-62
2024/03/18 15:58:47;;;;;;;8.97;4.00;;;;;;;16.60;71.67;96544.31;2071023;28;20767;-62
2024/03/18 15:59:48;;;;;;;9.87;4.10;;;;;;;16.72;71.44;96546.09;2071286;28;20241;-63
2024/03/18 16:00:49;;;;;;;10.70;4.40;;;;;;;17.27;70.20;96558.91;2067624;28;20203;-63
2024/03/18 16:01:50;;;;;;;8.68;4.32;;;;;;;17.63;68.94;96542.13;2062565;28;20207;-62
2024/03/18 16:02:54;;;;;;;11.23;4.50;;;;;;;17.82;68.20;96545.19;2061700;28;20267;-62
2024/03/18 16:03:54;;;;;;;11.75;3.70;;;;;;;17.26;68.79;96550.13;2065550;28;20280;-63
2024/03/18 16:04:55;;;;;;;7.83;3.87;;;;;;;17.56;68.10;96542.69;2062201;28;20207;-62
2024/03/18 16:06:02;;;;;;;8.47;4.00;;;;;;;17.46;67.94;96540.75;2069354;28;20309;-62
2024/03/18 16:07:04;;;;;;;12.90;4.18;;;;;;;16.73;70.66;96554.81;2068574;28;20264;-63
2024/03/18 16:08:04;;;;;;;11.05;4.40;;;;;;;16.42;71.92;96559.63;2067751;28;20577;-63
2024/03/18 16:09:05;;;;;;;8.90;3.15;;;;;;;16.05;72.10;96557.72;2073239;28;20218;-62
2024/03/18 16:10:09;;;;;;;6.83;3.77;;;;;;;15.46;73.15;96555.47;2067071;28;20202;-62
2024/03/18 16:11:10;;;;;;;7.25;3.90;;;;;;;15.34;74.93;96563.22;2066708;28;20214;-63
2024/03/18 16:12:17;;;;;;;8.20;4.50;;;;;;;14.97;74.86;96575.28;2066441;28;20207;-63
2024/03/18 16:13:18;;;;;;;12.00;4.40;;;;;;;14.46;75.89;96571.38;2068072;28;20225;-62
2024/03/18 16:14:19;;;;;;;19.70;10.73;;;;;;;13.99;78.16;96575.09;2073811;28;20252;-62
2024/03/18 16:15:20;;;;;;;10.37;6.53;;;;;;;13.97;78.56;96566.47;2059974;28;20653;-62
2024/03/18 16:16:20;;;;;;;73.77;35.00;;;;;;;14.29;78.11;96574.19;2062483;28;20507;-62
2024/03/18 16:17:22;;;;;;;44.97;22.33;;;;;;;13.98;79.31;96571.63;2069280;28;20210;-62
2024/03/18 16:18:22;;;;;;;10.07;6.00;;;;;;;13.45;80.51;96567.75;2068256;28;20577;-62
2024/03/18 16:19:23;;;;;;;15.43;8.13;;;;;;;13.43;81.28;96564.34;2063281;28;20218;-62
2024/03/18 16:20:24;;;;;;;25.60;12.93;;;;;;;13.13;82.00;96571.22;2065664;28;20312;-62
2024/03/18 16:21:24;;;;;;;14.65;9.45;;;;;;;12.94;83.76;96571.41;2067035;28;20210;-62
